createdAt,value
2022-10-19T00:00:43.072Z,12.02
2022-10-19T00:06:51.541Z,12.70
2022-10-19T00:09:53.878Z,15.75
2022-10-19T00:12:56.032Z,12.15
2022-10-19T00:15:58.351Z,15.00
2022-10-19T00:19:02.266Z,13.52
2022-10-19T00:22:05.182Z,16.80
2022-10-19T00:25:08.341Z,13.43
2022-10-19T00:28:10.711Z,11.82
2022-10-19T00:31:16.286Z,15.57
2022-10-19T00:34:18.662Z,10.60
2022-10-19T00:37:20.733Z,15.40
2022-10-19T00:40:23.080Z,15.52
2022-10-19T00:43:27.986Z,17.05
2022-10-19T00:46:33.968Z,13.23
2022-10-19T00:49:42.689Z,13.13
2022-10-19T00:52:45.152Z,14.35
2022-10-19T00:55:47.551Z,11.25
2022-10-19T00:58:50.206Z,12.80
2022-10-19T01:01:53.366Z,13.30
2022-10-19T01:04:56.069Z,12.55
2022-10-19T01:07:58.347Z,13.27
2022-10-19T01:11:27.006Z,12.15
2022-10-19T01:14:35.275Z,11.23
2022-10-19T01:17:57.997Z,12.93
2022-10-19T01:21:02.781Z,12.73
2022-10-19T01:24:23.495Z,12.63
2022-10-19T01:28:00.313Z,12.00
2022-10-19T01:31:27.087Z,13.90
2022-10-19T01:34:51.338Z,11.52
2022-10-19T01:38:24.667Z,13.25
2022-10-19T01:41:41.326Z,12.45
2022-10-19T01:44:53.157Z,12.60
2022-10-19T01:48:12.000Z,12.68
2022-10-19T01:51:19.454Z,13.73
2022-10-19T01:54:24.102Z,11.38
2022-10-19T01:57:36.895Z,12.45
2022-10-19T02:00:42.661Z,13.60
2022-10-19T02:03:45.740Z,13.55
2022-10-19T02:06:50.767Z,13.13
2022-10-19T02:09:52.892Z,11.75
2022-10-19T02:12:56.758Z,14.15
2022-10-19T02:16:03.379Z,15.55
2022-10-19T02:19:08.678Z,13.90
2022-10-19T02:22:12.371Z,14.30
2022-10-19T02:25:15.587Z,12.48
2022-10-19T02:28:18.157Z,13.38
2022-10-19T02:31:21.145Z,13.23
2022-10-19T02:34:23.365Z,17.73
2022-10-19T02:37:25.931Z,16.17
2022-10-19T02:40:32.442Z,14.35
2022-10-19T02:43:38.184Z,16.83
2022-10-19T02:46:55.178Z,11.50
2022-10-19T02:49:57.545Z,13.90
2022-10-19T02:53:00.022Z,13.30
2022-10-19T02:56:02.368Z,19.27
2022-10-19T02:59:04.702Z,15.32
2022-10-19T03:02:07.559Z,12.60
2022-10-19T03:05:09.956Z,12.95
2022-10-19T03:08:12.309Z,13.85
2022-10-19T03:11:14.423Z,11.73
2022-10-19T03:14:16.759Z,14.05
2022-10-19T03:17:18.865Z,14.40
2022-10-19T03:20:21.250Z,19.52
2022-10-19T03:23:23.308Z,11.88
2022-10-19T03:26:25.631Z,12.65
2022-10-19T03:29:27.728Z,13.27
2022-10-19T03:32:30.085Z,13.13
2022-10-19T03:35:32.181Z,14.07
2022-10-19T03:38:34.502Z,16.20
2022-10-19T03:41:37.484Z,15.35
2022-10-19T03:44:39.819Z,15.52
2022-10-19T03:47:41.922Z,13.98
2022-10-19T03:50:44.271Z,15.38
2022-10-19T03:53:46.965Z,15.10
2022-10-19T03:56:49.309Z,17.90
2022-10-19T03:59:51.373Z,19.58
2022-10-19T04:02:53.706Z,20.50
2022-10-19T04:06:05.603Z,15.48
2022-10-19T04:09:09.029Z,19.08
2022-10-19T04:12:11.468Z,18.23
2022-10-19T04:15:13.582Z,19.77
2022-10-19T04:18:15.930Z,18.85
2022-10-19T04:21:27.193Z,21.67
2022-10-19T04:24:29.728Z,19.23
2022-10-19T04:27:32.125Z,18.10
2022-10-19T04:30:34.791Z,18.40
2022-10-19T04:33:36.967Z,20.35
2022-10-19T04:36:39.350Z,20.83
2022-10-19T04:39:43.248Z,19.10
2022-10-19T04:42:45.622Z,17.48
2022-10-19T04:45:47.920Z,14.13
2022-10-19T04:48:50.811Z,17.37
2022-10-19T04:51:53.036Z,15.80
2022-10-19T04:54:55.382Z,17.45
2022-10-19T04:57:57.438Z,23.30
2022-10-19T05:00:59.842Z,18.58
2022-10-19T05:04:03.087Z,24.52
2022-10-19T05:07:05.417Z,19.50
2022-10-19T05:10:09.112Z,18.50
2022-10-19T05:13:11.503Z,20.02
2022-10-19T05:16:16.679Z,18.77
2022-10-19T05:19:19.021Z,18.02
2022-10-19T05:22:21.114Z,23.42
2022-10-19T05:25:23.468Z,19.77
2022-10-19T05:28:25.695Z,21.55
2022-10-19T05:31:31.109Z,21.48
2022-10-19T05:34:33.406Z,20.62
2022-10-19T05:37:36.074Z,19.67
2022-10-19T05:40:38.510Z,27.55
2022-10-19T05:43:41.916Z,18.62
2022-10-19T05:46:44.803Z,28.12
2022-10-19T05:49:47.765Z,30.45
2022-10-19T05:52:49.964Z,21.05
2022-10-19T05:55:52.478Z,17.75
2022-10-19T05:58:56.672Z,15.82
2022-10-19T06:01:59.155Z,12.93
2022-10-19T06:05:01.661Z,17.37
2022-10-19T06:08:03.908Z,12.52
2022-10-19T06:11:13.203Z,8.05
2022-10-19T06:14:16.634Z,11.48
2022-10-19T06:17:19.114Z,7.60
2022-10-19T06:20:21.279Z,9.55
2022-10-19T06:23:23.613Z,14.80
2022-10-19T06:26:26.807Z,7.40
2022-10-19T06:29:29.257Z,6.72
2022-10-19T06:32:32.336Z,8.52
2022-10-19T06:35:35.377Z,7.37
2022-10-19T06:38:37.799Z,8.70
2022-10-19T06:41:40.125Z,8.65
2022-10-19T06:44:43.933Z,6.90
2022-10-19T06:51:06.429Z,6.55
2022-10-19T06:54:09.059Z,7.15
2022-10-19T06:57:11.138Z,5.70
2022-10-19T07:00:14.099Z,6.78
2022-10-19T07:03:16.177Z,7.43
2022-10-19T07:06:19.072Z,9.48
2022-10-19T07:09:22.384Z,9.98
2022-10-19T07:12:24.707Z,9.80
2022-10-19T07:15:26.770Z,6.40
2022-10-19T07:18:29.181Z,8.02
2022-10-19T07:21:31.297Z,9.10
2022-10-19T07:24:33.640Z,7.65
2022-10-19T07:27:37.805Z,5.80
2022-10-19T07:30:40.347Z,5.97
2022-10-19T07:33:42.436Z,8.65
2022-10-19T07:36:47.984Z,5.75
2022-10-19T07:39:50.092Z,7.07
2022-10-19T07:42:52.424Z,6.15
2022-10-19T07:46:02.027Z,6.72
2022-10-19T07:49:10.798Z,6.97
2022-10-19T07:52:12.881Z,6.57
2022-10-19T07:55:15.437Z,8.68
2022-10-19T07:58:17.616Z,9.43
2022-10-19T08:01:22.541Z,6.55
2022-10-19T08:04:56.034Z,7.30
2022-10-19T08:07:47.012Z,6.03
2022-10-19T08:10:49.416Z,8.27
2022-10-19T08:13:52.194Z,6.75
2022-10-19T08:16:54.512Z,11.90
2022-10-19T08:19:56.594Z,8.48
2022-10-19T08:22:59.210Z,8.45
2022-10-19T08:26:01.351Z,8.05
2022-10-19T08:29:06.809Z,8.18
2022-10-19T08:32:08.966Z,6.68
2022-10-19T08:35:11.566Z,7.87
2022-10-19T08:38:13.756Z,9.50
2022-10-19T08:45:28.349Z,8.23
2022-10-19T08:48:33.783Z,9.17
2022-10-19T08:51:41.773Z,9.45
2022-10-19T08:54:51.903Z,7.50
2022-10-19T08:58:27.580Z,8.03
2022-10-19T09:01:40.983Z,8.00
2022-10-19T09:04:49.400Z,9.32
2022-10-19T09:07:53.885Z,8.35
2022-10-19T09:10:57.290Z,7.75
2022-10-19T09:14:40.096Z,11.48
2022-10-19T09:17:42.212Z,8.25
2022-10-19T09:20:47.995Z,12.77
2022-10-19T09:24:26.961Z,9.40
2022-10-19T09:27:35.444Z,9.45
2022-10-19T09:30:40.426Z,11.30
2022-10-19T09:33:47.224Z,6.03
2022-10-19T09:36:56.057Z,5.82
2022-10-19T09:39:58.378Z,5.03
2022-10-19T09:43:08.743Z,9.55
2022-10-19T09:46:20.691Z,4.72
2022-10-19T09:49:40.648Z,5.32
2022-10-19T09:52:45.852Z,26.75
2022-10-19T09:55:56.612Z,6.28
2022-10-19T09:58:59.023Z,6.15
2022-10-19T10:02:19.228Z,5.70
2022-10-19T10:05:37.638Z,5.32
2022-10-19T10:08:57.869Z,4.65
2022-10-19T10:15:05.984Z,5.47
2022-10-19T10:18:16.342Z,8.77
2022-10-19T10:21:26.474Z,7.07
2022-10-19T10:24:31.054Z,4.78
2022-10-19T10:27:36.678Z,4.00
2022-10-19T10:30:39.438Z,5.28
2022-10-19T10:33:45.880Z,5.90
2022-10-19T10:36:51.287Z,3.42
2022-10-19T10:39:57.687Z,2.60
2022-10-19T10:43:08.682Z,2.20
2022-10-19T10:46:19.660Z,2.62
2022-10-19T10:49:28.917Z,3.70
2022-10-19T10:52:31.733Z,3.78
2022-10-19T10:55:34.437Z,14.75
2022-10-19T10:58:47.889Z,3.72
2022-10-19T11:02:09.610Z,5.53
2022-10-19T11:05:14.575Z,2.22
2022-10-19T11:08:38.514Z,9.88
2022-10-19T11:11:45.077Z,1.90
2022-10-19T11:14:59.331Z,2.90
2022-10-19T11:18:07.854Z,2.25
2022-10-19T11:21:12.912Z,1.10
2022-10-19T11:24:41.881Z,6.10
2022-10-19T11:28:04.810Z,8.38
2022-10-19T11:34:57.978Z,2.80
2022-10-19T11:38:25.131Z,2.58
2022-10-19T11:41:50.410Z,5.43
2022-10-19T11:45:10.954Z,2.03
2022-10-19T11:48:41.676Z,1.60
2022-10-19T11:51:57.558Z,2.50
2022-10-19T11:55:02.636Z,3.10
2022-10-19T11:58:34.499Z,3.53
2022-10-19T12:01:58.615Z,1.95
2022-10-19T12:05:27.921Z,3.62
2022-10-19T12:08:30.091Z,10.57
2022-10-19T12:11:42.016Z,5.55
2022-10-19T12:14:48.830Z,3.67
2022-10-19T12:17:56.126Z,3.85
2022-10-19T12:21:02.679Z,2.25
2022-10-19T12:24:14.420Z,7.45
2022-10-19T12:27:18.520Z,3.37
2022-10-19T12:30:23.484Z,5.10
2022-10-19T12:33:46.749Z,2.83
2022-10-19T12:36:54.925Z,3.80
2022-10-19T12:40:15.343Z,4.53
2022-10-19T12:46:42.890Z,6.28
2022-10-19T12:49:49.931Z,2.92
2022-10-19T12:52:54.453Z,4.72
2022-10-19T12:56:13.675Z,3.80
2022-10-19T12:59:26.125Z,25.25
2022-10-19T13:05:41.553Z,2.67
2022-10-19T13:08:53.019Z,4.15
2022-10-19T13:12:25.794Z,2.55
2022-10-19T13:15:50.218Z,4.18
2022-10-19T13:19:01.539Z,2.28
2022-10-19T13:22:26.949Z,2.72
2022-10-19T13:25:32.738Z,1.60
2022-10-19T13:28:37.741Z,2.67
2022-10-19T13:31:39.896Z,4.00
2022-10-19T13:34:42.221Z,6.22
2022-10-19T13:37:44.694Z,5.12
2022-10-19T13:40:50.066Z,2.97
2022-10-19T13:44:16.935Z,5.10
2022-10-19T13:47:19.181Z,3.12
2022-10-19T13:50:43.666Z,2.55
2022-10-19T13:54:19.146Z,2.90
2022-10-19T13:57:59.142Z,2.10
2022-10-19T14:01:18.501Z,3.45
2022-10-19T14:04:33.335Z,3.37
2022-10-19T14:08:14.384Z,8.02
2022-10-19T14:11:32.138Z,4.82
2022-10-19T14:14:44.333Z,3.70
2022-10-19T14:17:46.772Z,4.55
2022-10-19T14:21:05.798Z,5.75
2022-10-19T14:24:34.257Z,5.32
2022-10-19T14:27:36.962Z,3.50
2022-10-19T14:30:44.312Z,4.87
2022-10-19T14:33:50.541Z,4.15
2022-10-19T14:36:52.933Z,6.37
2022-10-19T14:40:16.476Z,7.78
2022-10-19T14:43:24.292Z,12.37
2022-10-19T14:46:30.963Z,6.30
2022-10-19T14:49:33.363Z,3.80
2022-10-19T14:52:39.508Z,8.68
2022-10-19T14:55:42.626Z,5.57
2022-10-19T14:58:56.300Z,6.30
2022-10-19T15:02:02.483Z,5.25
2022-10-19T15:05:06.577Z,6.40
2022-10-19T15:08:17.101Z,4.85
2022-10-19T15:11:37.870Z,3.00
2022-10-19T15:14:40.562Z,3.40
2022-10-19T15:17:54.380Z,3.58
2022-10-19T15:21:14.042Z,5.82
2022-10-19T15:24:28.158Z,4.60
2022-10-19T15:27:36.012Z,7.60
2022-10-19T15:30:38.163Z,3.17
2022-10-19T15:33:45.059Z,4.12
2022-10-19T15:37:01.285Z,5.37
2022-10-19T15:40:22.439Z,5.30
2022-10-19T15:47:12.349Z,4.18
2022-10-19T15:50:31.986Z,6.72
2022-10-19T15:53:34.330Z,5.50
2022-10-19T15:56:39.015Z,5.40
2022-10-19T15:59:41.360Z,4.05
2022-10-19T16:02:43.717Z,8.23
2022-10-19T16:05:47.124Z,7.35
2022-10-19T16:08:51.209Z,6.12
2022-10-19T16:11:56.957Z,6.62
2022-10-19T16:14:59.068Z,4.62
2022-10-19T16:18:01.487Z,4.15
2022-10-19T16:21:03.874Z,3.15
2022-10-19T16:24:06.384Z,6.10
2022-10-19T16:27:09.332Z,6.15
2022-10-19T16:30:12.784Z,9.48
2022-10-19T16:33:14.853Z,3.60
2022-10-19T16:36:20.170Z,7.55
2022-10-19T16:39:25.348Z,10.23
2022-10-19T16:42:30.438Z,9.35
2022-10-19T16:45:32.871Z,8.95
2022-10-19T16:48:35.400Z,5.90
2022-10-19T16:51:38.241Z,6.62
2022-10-19T16:54:40.653Z,7.35
2022-10-19T16:57:42.712Z,3.33
2022-10-19T17:00:45.027Z,3.90
2022-10-19T17:03:48.638Z,7.70
2022-10-19T17:06:50.991Z,4.70
2022-10-19T17:09:54.823Z,5.93
2022-10-19T17:12:57.447Z,5.53
2022-10-19T17:16:03.048Z,5.18
2022-10-19T17:19:07.671Z,3.58
2022-10-19T17:22:09.724Z,3.87
2022-10-19T17:25:12.078Z,5.40
2022-10-19T17:28:14.264Z,3.40
2022-10-19T17:31:16.601Z,6.20
2022-10-19T17:34:19.179Z,4.30
2022-10-19T17:37:21.525Z,5.37
2022-10-19T17:40:23.590Z,4.87
2022-10-19T17:43:25.918Z,13.52
2022-10-19T17:46:30.941Z,5.15
2022-10-19T17:49:33.272Z,4.03
2022-10-19T17:52:35.348Z,8.18
2022-10-19T17:55:37.669Z,5.97
2022-10-19T17:58:40.196Z,6.80
2022-10-19T18:01:42.706Z,6.28
2022-10-19T18:04:45.023Z,5.97
2022-10-19T18:07:49.119Z,9.98
2022-10-19T18:11:00.259Z,5.18
2022-10-19T18:17:05.077Z,7.82
2022-10-19T18:20:07.815Z,7.05
2022-10-19T18:23:10.183Z,6.37
2022-10-19T18:26:19.793Z,6.62
2022-10-19T18:29:25.227Z,5.55
2022-10-19T18:32:27.311Z,5.53
2022-10-19T18:35:29.916Z,10.90
2022-10-19T18:38:32.201Z,10.05
2022-10-19T18:41:34.783Z,6.70
2022-10-19T18:44:36.844Z,5.78
2022-10-19T18:47:39.168Z,5.87
2022-10-19T18:50:41.318Z,5.37
2022-10-19T18:53:45.081Z,4.57
2022-10-19T18:56:47.236Z,7.22
2022-10-19T18:59:49.542Z,4.37
2022-10-19T19:02:55.360Z,6.70
2022-10-19T19:06:01.896Z,5.80
2022-10-19T19:09:07.756Z,6.18
2022-10-19T19:12:10.107Z,8.15
2022-10-19T19:15:12.320Z,7.20
2022-10-19T19:18:14.690Z,5.37
2022-10-19T19:21:23.106Z,6.90
2022-10-19T19:24:31.347Z,9.15
2022-10-19T19:27:33.541Z,8.13
2022-10-19T19:30:44.024Z,4.68
2022-10-19T19:33:47.371Z,5.50
2022-10-19T19:36:49.826Z,2.95
2022-10-19T19:39:51.913Z,5.35
2022-10-19T19:42:54.218Z,6.30
2022-10-19T19:46:04.556Z,5.22
2022-10-19T19:49:10.663Z,6.62
2022-10-19T19:52:13.082Z,5.03
2022-10-19T19:55:15.418Z,3.40
2022-10-19T19:58:18.807Z,6.00
2022-10-19T20:01:21.753Z,4.68
2022-10-19T20:04:24.176Z,4.55
2022-10-19T20:07:26.986Z,5.47
2022-10-19T20:10:29.321Z,4.05
2022-10-19T20:13:31.688Z,3.67
2022-10-19T20:16:34.284Z,3.50
2022-10-19T20:19:36.552Z,3.62
2022-10-19T20:22:39.103Z,4.78
2022-10-19T20:25:41.181Z,5.62
2022-10-19T20:28:44.220Z,5.87
2022-10-19T20:31:46.310Z,4.90
2022-10-19T20:34:48.624Z,4.25
2022-10-19T20:37:50.904Z,4.20
2022-10-19T20:40:54.519Z,3.72
2022-10-19T20:43:56.678Z,4.12
2022-10-19T20:46:59.097Z,6.62
2022-10-19T20:50:01.224Z,5.53
2022-10-19T20:53:03.583Z,9.18
2022-10-19T20:56:10.642Z,5.18
2022-10-19T20:59:17.577Z,3.67
2022-10-19T21:02:19.637Z,4.40
2022-10-19T21:05:22.462Z,6.20
2022-10-19T21:08:24.639Z,6.82
2022-10-19T21:11:29.278Z,4.75
2022-10-19T21:14:31.493Z,6.00
2022-10-19T21:17:33.867Z,4.47
2022-10-19T21:20:37.015Z,4.35
2022-10-19T21:23:39.496Z,6.28
2022-10-19T21:26:41.705Z,7.12
2022-10-19T21:29:44.088Z,5.35
2022-10-19T21:32:47.947Z,3.47
2022-10-19T21:38:57.526Z,5.47
2022-10-19T21:41:59.862Z,3.42
2022-10-19T21:45:18.253Z,3.40
2022-10-19T21:48:24.576Z,8.57
2022-10-19T21:51:43.182Z,3.35
2022-10-19T21:54:45.511Z,7.45
2022-10-19T21:57:47.623Z,5.75
2022-10-19T22:00:49.949Z,3.15
2022-10-19T22:04:00.255Z,4.97
2022-10-19T22:07:02.284Z,3.45
2022-10-19T22:10:05.051Z,7.40
2022-10-19T22:13:07.128Z,6.00
2022-10-19T22:16:13.183Z,7.18
2022-10-19T22:19:15.233Z,5.53
2022-10-19T22:22:17.579Z,3.15
2022-10-19T22:25:19.731Z,4.37
2022-10-19T22:28:22.052Z,3.33
2022-10-19T22:31:25.990Z,4.10
2022-10-19T22:34:28.342Z,5.55
2022-10-19T22:37:30.452Z,4.18
2022-10-19T22:40:32.817Z,4.82
2022-10-19T22:43:34.928Z,6.15
2022-10-19T22:46:37.316Z,5.68
2022-10-19T22:49:39.433Z,5.30
2022-10-19T22:52:41.813Z,9.27
2022-10-19T22:55:43.986Z,4.90
2022-10-19T22:58:46.408Z,6.60
2022-10-19T23:01:48.647Z,7.68
2022-10-19T23:04:51.087Z,5.43
2022-10-19T23:07:53.176Z,7.62
2022-10-19T23:10:55.790Z,4.62
2022-10-19T23:13:58.019Z,7.18
2022-10-19T23:17:00.420Z,5.45
2022-10-19T23:20:02.576Z,5.30
2022-10-19T23:23:05.230Z,5.75
2022-10-19T23:26:09.060Z,5.22
2022-10-19T23:29:11.439Z,10.27
2022-10-19T23:32:13.554Z,9.73
2022-10-19T23:35:16.017Z,6.45
2022-10-19T23:38:18.231Z,5.47
2022-10-19T23:41:21.356Z,5.07
2022-10-19T23:44:23.450Z,4.60
2022-10-19T23:47:25.875Z,4.35
2022-10-19T23:50:27.997Z,6.22
2022-10-19T23:53:36.963Z,6.12
2022-10-19T23:56:42.101Z,6.50
2022-10-19T23:59:44.443Z,6.70
